»·PEaware :: N287JB KLAX-KPSP

N287JB :: KLAX-KPSP

FLIGHT INFORMATION

Flight Status: Arrived
Operator: Privately registered:
United States
More flights under this callsign
Pilot: John L. (16055)
Aircraft: Unknown
(VIPJ)
More flights by this aircraft type
Origin: KLAX Los Angeles Intl
United States
Destination: KPSP Palm Springs Intl
United States
More flights between these airports :: More routes between these airports
Route: +LAXX1 TRM
File this flight plan on PilotEdge
Remarks: N287JB Plan RNAV 34L AT KPSP
Altitude:
(Current/Filed)
19,000ft
Speed:
(Current/Filed)
350kts
Departed: 07-Oct-17 08:47 PM
Arrived: 07-Oct-17 09:23 PM
Distance/Time
Traveled:
95nm/0:35
Distance/Time
To Go:
Arrived

Flight Plot

Page will automatically refresh every two minutes.

Flight plan parsing failed; only flown route is shown


Map Options




Map Legend


Flown Route
Filed Route
Departure Airport
Arrival Airport
Navaid (VOR, NDB)
Fix

Horizontal Profiles

Position Reports

Time Latitude Longitude Heading Altitude Ground
Speed
07-Oct-17 20:27 33.932904 -118.399812 78 129ft 0kts
07-Oct-17 20:28 33.932904 -118.399812 78 129ft 0kts
07-Oct-17 20:29 33.932904 -118.399812 78 129ft 0kts
07-Oct-17 20:30 33.932904 -118.399812 78 129ft 0kts
07-Oct-17 20:31 33.932904 -118.399812 78 129ft 0kts
07-Oct-17 20:32 33.932904 -118.399812 78 129ft 0kts
07-Oct-17 20:33 33.932904 -118.399812 78 129ft 0kts
07-Oct-17 20:34 33.932904 -118.399812 78 129ft 0kts
07-Oct-17 20:35 33.932904 -118.399812 78 129ft 0kts
07-Oct-17 20:36 33.932904 -118.399812 78 129ft 0kts
07-Oct-17 20:37 33.932904 -118.399812 78 129ft 0kts
07-Oct-17 20:38 33.932904 -118.399812 78 129ft 0kts
07-Oct-17 20:39 33.932904 -118.399812 78 129ft 0kts
07-Oct-17 20:40 33.932923 -118.399738 69 129ft 2kts
07-Oct-17 20:41 33.933979 -118.398127 355 129ft 9kts
07-Oct-17 20:42 33.934760 -118.396115 82 129ft 11kts
07-Oct-17 20:43 33.935329 -118.390545 79 129ft 22kts
07-Oct-17 20:44 33.935860 -118.381341 172 129ft 24kts
07-Oct-17 20:45 33.936135 -118.381914 265 129ft 2kts
07-Oct-17 20:46 33.936145 -118.382348 289 129ft 0kts
07-Oct-17 20:47 33.936145 -118.382348 289 129ft 0kts
07-Oct-17 20:48 33.936145 -118.382348 289 129ft 0kts
07-Oct-17 20:49 33.936145 -118.382348 289 129ft 0kts
07-Oct-17 20:50 33.936184 -118.382470 294 129ft 2kts
07-Oct-17 20:51 33.937085 -118.385237 261 129ft 45kts
07-Oct-17 20:52 33.931943 -118.436341 263 2029ft 210kts
07-Oct-17 20:53 33.895353 -118.510710 233 3892ft 324kts
07-Oct-17 20:54 33.857089 -118.567848 221 5653ft 208kts
07-Oct-17 20:55 33.792185 -118.570883 172 9598ft 252kts
07-Oct-17 20:56 33.724576 -118.555023 172 13457ft 253kts
07-Oct-17 20:57 33.653611 -118.535191 162 15683ft 277kts
07-Oct-17 20:58 33.625187 -118.451378 92 16890ft 334kts
07-Oct-17 20:59 33.621752 -118.341221 91 18840ft 340kts
07-Oct-17 21:00 33.618161 -118.226413 91 18824ft 342kts
07-Oct-17 21:01 33.618504 -118.112259 88 18825ft 342kts
07-Oct-17 21:02 33.620008 -117.999834 88 18828ft 342kts
07-Oct-17 21:03 33.621354 -117.885841 88 18833ft 342kts
07-Oct-17 21:04 33.622588 -117.771732 88 18836ft 342kts
07-Oct-17 21:05 33.623717 -117.657799 88 18837ft 342kts
07-Oct-17 21:06 33.624745 -117.543690 88 18846ft 342kts
07-Oct-17 21:07 33.625667 -117.429367 88 18868ft 342kts
07-Oct-17 21:08 33.626479 -117.316730 89 18878ft 343kts
07-Oct-17 21:09 33.627007 -117.238377 89 18873ft 342kts
07-Oct-17 21:10 33.627007 -117.238377 89 18873ft 342kts
07-Oct-17 21:11 33.627007 -117.238377 89 18873ft 342kts
07-Oct-17 21:12 33.627599 -117.133273 89 18992ft 344kts
07-Oct-17 21:13 33.628092 -117.024555 89 16955ft 316kts
07-Oct-17 21:14 33.628550 -116.921176 89 14958ft 305kts
07-Oct-17 21:15 33.628863 -116.822790 89 13995ft 281kts
07-Oct-17 21:16 33.629032 -116.740013 88 13999ft 236kts
07-Oct-17 21:17 33.629173 -116.661383 88 14000ft 237kts
07-Oct-17 21:18 33.647518 -116.589517 51 13512ft 234kts
07-Oct-17 21:19 33.685399 -116.528424 51 12222ft 225kts
07-Oct-17 21:20 33.698134 -116.460153 98 10803ft 226kts
07-Oct-17 21:21 33.662606 -116.401515 112 7708ft 225kts
07-Oct-17 21:22 33.691586 -116.377640 325 6984ft 153kts
07-Oct-17 21:23 33.728031 -116.407710 314 5040ft 166kts
07-Oct-17 21:24 33.759965 -116.445393 319 3169ft 151kts
07-Oct-17 21:25 33.789404 -116.472532 321 1574ft 121kts
07-Oct-17 21:26 33.814442 -116.494338 318 630ft 118kts
07-Oct-17 21:27 33.828684 -116.507102 290 481ft 0kts
07-Oct-17 21:29 33.828732 -116.507473 271 481ft 3kts
07-Oct-17 21:30 33.826522 -116.506977 152 481ft 15kts
07-Oct-17 21:30 33.824900 -116.506974 239 481ft 0kts
07-Oct-17 21:31 33.824233 -116.507041 180 481ft 8kts
07-Oct-17 21:33 33.823947 -116.507015 5 481ft 0kts
07-Oct-17 21:34 33.823947 -116.507015 5 481ft 0kts
07-Oct-17 21:34 33.823947 -116.507015 5 481ft 0kts
07-Oct-17 21:36 33.823947 -116.507015 5 481ft 0kts
07-Oct-17 21:36 33.823947 -116.507015 5 481ft 0kts
07-Oct-17 21:37 33.823947 -116.507015 5 481ft 0kts
07-Oct-17 21:38 33.823947 -116.507015 5 481ft 0kts
07-Oct-17 21:39 33.823947 -116.507015 5 481ft 0kts
07-Oct-17 21:40 33.823947 -116.507015 5 481ft 0kts
07-Oct-17 21:41 33.823947 -116.507015 5 481ft 0kts

Navigation Log

Ident Type
Flight plan parsing failed, navigation log unavailable